Time;durP1;ratioP1;P1;durP2;ratioP2;P2;SDS_P1;SDS_P2;PMS_P1;PMS_P2;Temp;Humidity;BMP_temperature;BMP_pressure;BME280_temperature;BME280_humidity;BME280_pressure;Samples;Min_cycle;Max_cycle;Signal;HPM_P1;HPM_P2
2021/12/24 00:07:12;;;;;;;7.03;5.13;;;;;;;14.40;48.81;99751.97;19670833;30;20151;-72
2021/12/24 00:17:16;;;;;;;6.55;4.95;;;;;;;14.38;49.02;99745.03;19669405;30;20056;-70
2021/12/24 00:37:41;;;;;;;6.75;5.05;;;;;;;14.39;48.85;99749.41;19681015;30;20500;-72
2021/12/24 00:47:44;;;;;;;5.80;4.68;;;;;;;14.39;48.96;99733.34;19652275;30;20064;-72
2021/12/24 00:57:49;;;;;;;5.85;4.90;;;;;;;14.51;49.40;99734.88;19654244;30;20590;-74
2021/12/24 01:07:51;;;;;;;6.35;4.72;;;;;;;14.41;49.41;99723.31;19724577;30;20063;-72
2021/12/24 01:18:05;;;;;;;5.00;4.00;;;;;;;14.50;49.43;99719.78;19708870;30;20051;-72
2021/12/24 01:38:22;;;;;;;4.07;3.45;;;;;;;14.29;49.28;99685.16;19712490;30;20454;-72
2021/12/24 01:48:24;;;;;;;4.07;3.10;;;;;;;14.54;49.48;99715.00;19664074;30;20147;-73
2021/12/24 01:58:26;;;;;;;3.60;3.00;;;;;;;13.69;49.70;99577.28;19661289;30;20068;-72
2021/12/24 02:08:29;;;;;;;3.45;2.90;;;;;;;14.51;50.01;99686.66;19675289;30;20121;-73
2021/12/24 02:28:57;;;;;;;3.87;2.90;;;;;;;14.44;50.19;99648.06;19659756;30;20056;-76
2021/12/24 02:38:59;;;;;;;2.65;2.40;;;;;;;14.13;50.13;99603.59;19659125;30;20056;-72
2021/12/24 02:49:12;;;;;;;2.40;2.00;;;;;;;14.55;50.27;99647.88;19644311;30;20082;-72
2021/12/24 02:59:17;;;;;;;2.00;1.80;;;;;;;14.42;50.30;99626.81;19649066;30;20056;-73
2021/12/24 03:09:20;;;;;;;2.00;1.80;;;;;;;14.55;50.02;99636.34;19629314;30;20088;-73
2021/12/24 03:19:26;;;;;;;2.80;2.00;;;;;;;14.51;50.14;99635.78;19642474;30;20117;-72
2021/12/24 03:29:28;;;;;;;2.13;1.92;;;;;;;14.47;50.49;99619.19;19627059;30;20187;-74
2021/12/24 03:39:30;;;;;;;1.92;1.60;;;;;;;14.45;50.68;99605.09;19652368;30;20085;-72
2021/12/24 03:49:37;;;;;;;2.00;1.80;;;;;;;14.13;50.45;99552.75;19663499;30;20052;-72
2021/12/24 03:59:39;;;;;;;1.73;1.40;;;;;;;14.14;50.89;99553.59;19660390;30;20051;-72
2021/12/24 04:10:39;;;;;;;1.88;1.60;;;;;;;14.05;50.99;99541.94;19661895;30;20057;-72
2021/12/24 04:31:30;;;;;;;1.67;1.55;;;;;;;14.32;50.91;99597.38;19661631;30;20092;-73
2021/12/24 04:53:20;;;;;;;2.45;2.10;;;;;;;14.64;51.24;99644.38;19657559;30;20531;-74
2021/12/24 05:02:52;;;;;;;3.45;1.90;;;;;;;14.83;51.48;99626.56;19653162;30;20163;-73
2021/12/24 05:12:56;;;;;;;3.58;2.33;;;;;;;14.67;50.70;99580.78;19653778;30;20056;-72
2021/12/24 05:23:05;;;;;;;3.88;2.42;;;;;;;14.74;50.92;99576.53;19693294;30;20059;-73
2021/12/24 05:33:12;;;;;;;2.90;1.77;;;;;;;14.73;50.94;99559.59;19677238;30;20149;-73
2021/12/24 05:43:13;;;;;;;5.57;2.08;;;;;;;14.74;51.35;99555.09;19662005;30;20072;-74
2021/12/24 05:53:16;;;;;;;4.85;1.90;;;;;;;14.92;51.17;99566.69;19657571;30;20060;-71
2021/12/24 06:03:44;;;;;;;3.25;1.88;;;;;;;15.46;51.41;99629.47;19653452;30;20078;-73
2021/12/24 06:13:51;;;;;;;3.03;1.65;;;;;;;15.70;51.53;99636.09;19652103;30;20118;-72
2021/12/24 06:23:53;;;;;;;3.28;1.60;;;;;;;15.95;51.94;99646.06;19633523;30;20122;-72
2021/12/24 06:33:54;;;;;;;1.77;1.52;;;;;;;16.15;52.34;99672.78;19674284;30;20064;-72
2021/12/24 06:43:57;;;;;;;2.65;1.80;;;;;;;15.88;52.27;99606.56;19646354;30;20792;-69
2021/12/24 06:53:59;;;;;;;3.63;1.85;;;;;;;16.42;52.80;99684.38;19659469;30;20056;-72
2021/12/24 07:04:01;;;;;;;3.70;1.67;;;;;;;16.06;52.87;99620.84;19656775;30;20123;-72
2021/12/24 07:14:03;;;;;;;3.38;1.65;;;;;;;16.00;52.82;99620.59;19649075;30;20067;-69
2021/12/24 07:24:06;;;;;;;2.90;1.63;;;;;;;16.47;52.82;99708.94;19644243;30;20048;-72
2021/12/24 07:34:08;;;;;;;3.60;1.55;;;;;;;16.13;52.69;99620.22;19626717;30;20067;-73
2021/12/24 07:44:11;;;;;;;3.45;1.67;;;;;;;16.21;52.56;99644.44;19634349;30;20077;-72
2021/12/24 07:54:14;;;;;;;2.80;1.30;;;;;;;16.18;52.45;99639.38;19634758;30;20067;-72
2021/12/24 08:04:16;;;;;;;4.20;1.40;;;;;;;16.66;52.24;99705.19;19631911;30;20122;-75
2021/12/24 08:14:18;;;;;;;3.33;1.30;;;;;;;16.28;52.38;99641.97;19631222;30;20056;-70
2021/12/24 08:24:20;;;;;;;3.08;1.20;;;;;;;16.50;51.98;99670.16;19625257;30;20068;-75
2021/12/24 08:34:22;;;;;;;6.03;1.95;;;;;;;16.26;52.00;99628.69;19626453;30;20057;-73
2021/12/24 08:44:27;;;;;;;4.53;1.27;;;;;;;16.64;52.12;99682.19;19626224;30;20157;-73
2021/12/24 08:54:29;;;;;;;3.60;1.40;;;;;;;16.70;52.02;99686.06;19616841;30;20432;-70
2021/12/24 09:04:31;;;;;;;3.85;1.13;;;;;;;16.72;51.95;99684.06;19623987;30;20063;-72
2021/12/24 09:14:33;;;;;;;5.38;1.58;;;;;;;16.82;51.73;99703.66;19632844;30;20063;-75
2021/12/24 09:24:36;;;;;;;3.88;1.30;;;;;;;16.50;51.64;99657.56;19655021;30;20060;-73
2021/12/24 09:34:38;;;;;;;2.47;1.20;;;;;;;16.47;51.75;99644.44;19641612;30;20083;-74
2021/12/24 09:44:40;;;;;;;3.65;1.27;;;;;;;16.81;51.78;99699.28;19619135;30;20070;-74
2021/12/24 09:54:44;;;;;;;3.83;1.30;;;;;;;16.91;51.86;99716.13;19656074;30;20052;-71
2021/12/24 10:04:46;;;;;;;4.13;1.35;;;;;;;16.54;51.82;99693.03;19654133;30;20060;-71
2021/12/24 10:14:53;;;;;;;3.40;1.58;;;;;;;16.76;51.92;99725.75;19623186;30;20060;-72
2021/12/24 10:24:59;;;;;;;4.82;1.38;;;;;;;16.44;52.04;99687.75;19627744;30;20076;-71
2021/12/24 10:35:01;;;;;;;3.33;1.83;;;;;;;16.47;51.83;99690.13;19634137;30;20139;-71
2021/12/24 10:45:17;;;;;;;4.20;1.55;;;;;;;16.54;52.10;99693.03;19632434;30;20515;-71
2021/12/24 10:55:28;;;;;;;5.45;2.05;;;;;;;16.74;52.22;99731.31;19632034;30;20056;-71
2021/12/24 11:05:43;;;;;;;4.70;1.30;;;;;;;16.75;52.08;99746.44;19644910;30;20480;-71
2021/12/24 11:15:50;;;;;;;5.10;1.40;;;;;;;16.71;52.34;99755.81;19638549;30;20056;-71
2021/12/24 11:25:55;;;;;;;3.80;1.02;;;;;;;16.43;52.49;99747.03;19641539;30;20158;-73
2021/12/24 11:35:58;;;;;;;;;;;;;;;16.73;52.55;99815.63;19632871;30;20060;-71
2021/12/24 11:46:03;;;;;;;1.23;0.77;;;;;;;16.73;52.46;99825.50;19643686;30;19930;-70
2021/12/24 11:56:07;;;;;;;2.20;0.80;;;;;;;16.71;52.24;99846.31;19685168;30;20052;-71
2021/12/24 12:06:32;;;;;;;1.80;0.80;;;;;;;16.71;52.03;99847.19;19639956;30;20064;-71
2021/12/24 12:16:39;;;;;;;1.70;0.70;;;;;;;16.72;52.12;99850.69;19642742;30;20062;-71
2021/12/24 12:26:50;;;;;;;1.88;0.68;;;;;;;16.36;52.00;99830.91;19636294;30;20072;-71
2021/12/24 12:36:52;;;;;;;0.90;0.60;;;;;;;16.70;51.93;99852.69;19649754;30;20449;-69
2021/12/24 12:47:13;;;;;;;1.05;0.60;;;;;;;16.63;52.22;99839.88;19672848;30;20484;-69
2021/12/24 12:57:18;;;;;;;0.88;0.65;;;;;;;16.63;52.13;99844.41;19654245;30;20068;-68
2021/12/24 13:07:23;;;;;;;;;;;;;;;16.77;52.50;99873.44;19690818;30;20411;-71
2021/12/24 13:17:32;;;;;;;0.68;0.43;;;;;;;16.44;52.94;99826.59;19682526;30;20385;-70
2021/12/24 13:27:39;;;;;;;2.20;0.50;;;;;;;16.49;53.27;99846.63;19677217;30;20064;-71
2021/12/24 13:37:45;;;;;;;3.33;0.80;;;;;;;16.26;53.43;99832.78;19682078;30;20388;-70
2021/12/24 13:48:06;;;;;;;0.60;0.57;;;;;;;16.51;53.29;99909.09;19678388;30;20434;-69
2021/12/24 13:58:10;;;;;;;1.95;0.85;;;;;;;16.34;53.17;99875.00;19679753;30;20060;-69
2021/12/24 14:08:14;;;;;;;1.30;0.75;;;;;;;16.11;53.06;99853.94;19700103;30;20068;-69
2021/12/24 14:18:50;;;;;;;0.75;0.43;;;;;;;16.30;52.88;99884.38;19671148;30;20745;-69
2021/12/24 14:28:53;;;;;;;0.57;0.40;;;;;;;16.58;53.12;99944.28;19682687;30;20125;-69
2021/12/24 14:39:14;;;;;;;0.85;0.30;;;;;;;16.73;52.58;99971.50;19689652;30;20064;-69
2021/12/24 14:49:17;;;;;;;0.52;0.30;;;;;;;16.38;52.59;99914.00;19676278;30;20118;-69
2021/12/24 14:59:19;;;;;;;0.95;0.50;;;;;;;16.73;52.37;99967.94;19674477;30;20072;-69
2021/12/24 15:09:27;;;;;;;1.15;0.50;;;;;;;16.76;52.51;99964.97;19650777;30;20063;-73
2021/12/24 15:19:29;;;;;;;1.17;0.60;;;;;;;16.41;52.70;99923.63;19656440;30;20056;-70
2021/12/24 15:29:31;;;;;;;0.68;0.50;;;;;;;16.72;53.07;100009.25;19671898;30;20051;-70
2021/12/24 15:39:33;;;;;;;0.70;0.60;;;;;;;16.50;52.88;99973.75;19643403;30;20126;-70
2021/12/24 15:49:35;;;;;;;0.40;0.40;;;;;;;16.68;53.30;100023.00;19670348;30;20059;-70
2021/12/24 15:59:36;;;;;;;0.45;0.45;;;;;;;16.72;52.89;100038.81;19684343;30;20060;-70
2021/12/24 16:09:38;;;;;;;0.60;0.60;;;;;;;16.73;52.89;100037.84;19669341;30;20060;-70
2021/12/24 16:19:40;;;;;;;0.60;0.60;;;;;;;16.59;53.26;100023.06;19667997;30;20064;-70
2021/12/24 16:29:51;;;;;;;0.40;0.40;;;;;;;16.34;52.77;100009.31;19679403;30;20061;-71
2021/12/24 16:39:53;;;;;;;1.38;0.60;;;;;;;16.33;52.58;99997.72;19681561;30;20052;-71
2021/12/24 16:49:55;;;;;;;0.80;0.45;;;;;;;16.55;52.31;100035.94;19665116;30;20068;-70
2021/12/24 16:59:57;;;;;;;0.70;0.40;;;;;;;16.81;52.05;100097.09;19677322;30;20109;-71
2021/12/24 17:09:58;;;;;;;1.08;0.93;;;;;;;16.77;51.76;100134.16;19664322;30;20067;-71
2021/12/24 17:20:04;;;;;;;1.42;0.85;;;;;;;16.75;51.72;100132.59;19661407;30;20422;-70
2021/12/24 17:30:09;;;;;;;2.10;1.33;;;;;;;16.75;51.56;100140.66;19626710;30;20113;-70
2021/12/24 17:40:11;;;;;;;1.77;1.45;;;;;;;16.37;51.38;100068.97;19627153;30;20114;-70
2021/12/24 17:50:13;;;;;;;3.08;2.17;;;;;;;16.34;51.23;100079.16;19633227;30;20516;-71
2021/12/24 18:00:16;;;;;;;4.20;2.63;;;;;;;16.42;50.94;100110.66;19657836;30;20079;-71
2021/12/24 18:10:21;;;;;;;4.57;2.78;;;;;;;16.41;50.83;100122.41;19668966;30;20056;-71
2021/12/24 18:20:23;;;;;;;4.22;2.80;;;;;;;16.28;50.55;100136.97;19674174;30;20084;-72
2021/12/24 18:30:25;;;;;;;3.40;2.40;;;;;;;16.40;50.60;100179.81;19672193;30;20487;-71
2021/12/24 18:40:29;;;;;;;3.33;2.38;;;;;;;16.77;50.52;100259.63;19602716;30;20056;-71
2021/12/24 18:50:31;;;;;;;3.28;2.00;;;;;;;16.63;50.22;100248.34;19623326;30;20442;-71
2021/12/24 19:00:36;;;;;;;3.58;1.90;;;;;;;16.62;49.67;100278.91;19660167;30;20064;-70
2021/12/24 19:10:40;;;;;;;2.97;2.00;;;;;;;15.84;49.26;100141.94;19662165;30;20071;-70
2021/12/24 19:20:42;;;;;;;2.40;1.55;;;;;;;16.54;49.19;100284.16;19669742;30;20122;-70
2021/12/24 19:30:45;;;;;;;1.77;1.42;;;;;;;16.57;49.36;100313.41;19670405;30;20066;-71
2021/12/24 19:40:46;;;;;;;2.58;1.60;;;;;;;16.03;49.05;100252.06;19669038;30;20068;-70
2021/12/24 19:50:48;;;;;;;3.05;1.75;;;;;;;16.29;49.21;100329.38;19667820;30;20056;-70
2021/12/24 20:00:50;;;;;;;2.38;1.50;;;;;;;15.85;49.08;100280.53;19630741;30;1186124;-70
2021/12/24 20:10:53;;;;;;;2.22;1.60;;;;;;;16.14;49.59;100358.50;19673664;30;20067;-71
2021/12/24 20:20:55;;;;;;;2.50;1.65;;;;;;;15.52;49.13;100278.91;19655606;30;20069;-71
2021/12/24 20:30:58;;;;;;;2.75;2.05;;;;;;;15.49;49.25;100305.13;19670102;30;20052;-70
2021/12/24 20:41:00;;;;;;;2.08;1.80;;;;;;;15.79;49.11;100383.94;19669598;30;20060;-70
2021/12/24 20:51:06;;;;;;;2.38;1.50;;;;;;;15.58;49.37;100365.19;19654338;30;20056;-70
2021/12/24 21:01:08;;;;;;;2.60;1.63;;;;;;;15.57;49.64;100387.63;19666663;30;20064;-70
2021/12/24 21:11:10;;;;;;;4.13;1.92;;;;;;;15.46;49.55;100401.97;19668562;30;20064;-70
2021/12/24 21:21:14;;;;;;;1.80;1.45;;;;;;;15.33;49.78;100380.72;19668267;30;20117;-71
2021/12/24 21:31:16;;;;;;;2.78;2.03;;;;;;;14.83;49.82;100322.44;19651821;30;20066;-70
2021/12/24 21:41:19;;;;;;;1.88;1.20;;;;;;;15.18;49.71;100407.88;19665233;30;20146;-70
2021/12/24 21:51:21;;;;;;;2.40;1.40;;;;;;;14.61;49.61;100357.19;19592964;30;20067;-70
2021/12/24 22:01:23;;;;;;;2.17;1.40;;;;;;;15.01;49.73;100433.44;19575861;30;20061;-70
2021/12/24 22:11:31;;;;;;;2.05;1.25;;;;;;;14.54;49.57;100368.53;19591852;30;20052;-70
2021/12/24 22:21:42;;;;;;;2.20;1.27;;;;;;;14.85;50.02;100451.78;19591606;30;20061;-70
2021/12/24 22:31:44;;;;;;;1.25;1.02;;;;;;;14.76;49.76;100464.09;19575680;30;20068;-70
2021/12/24 22:41:46;;;;;;;1.88;0.98;;;;;;;14.70;49.89;100491.38;19602624;30;20060;-70
2021/12/24 23:01:53;;;;;;;3.28;1.00;;;;;;;14.52;49.75;100499.91;19647230;30;20437;-70
2021/12/24 23:11:55;;;;;;;1.73;0.95;;;;;;;14.53;49.21;100512.31;19660925;30;20072;-70
2021/12/24 23:21:57;;;;;;;2.03;1.15;;;;;;;13.96;49.41;100415.16;19661612;30;20060;-70
2021/12/24 23:32:11;;;;;;;1.75;0.80;;;;;;;14.48;49.13;100501.13;19662038;30;20048;-73
2021/12/24 23:42:32;;;;;;;2.20;0.90;;;;;;;13.73;49.00;100391.06;19653457;30;20052;-70
2021/12/24 23:52:51;;;;;;;3.30;0.70;;;;;;;14.34;48.49;100487.03;19673179;30;20091;-70
